Time;durP1;ratioP1;P1;durP2;ratioP2;P2;SDS_P1;SDS_P2;PMS_P1;PMS_P2;Temp;Humidity;BMP_temperature;BMP_pressure;BME280_temperature;BME280_humidity;BME280_pressure;Samples;Min_cycle;Max_cycle;Signal;HPM_P1;HPM_P2
2021/09/29 00:02:00;;;;;;;7.55;6.80;;;;;;;14.33;90.31;100470.47;10385097;28;20042;-73
2021/09/29 00:07:02;;;;;;;10.45;7.78;;;;;;;14.41;90.04;100472.81;10367507;28;20041;-73
2021/09/29 00:12:04;;;;;;;12.90;10.05;;;;;;;14.29;91.28;100464.44;10350504;28;20100;-72
2021/09/29 00:17:06;;;;;;;11.77;9.85;;;;;;;14.54;90.45;100460.84;10384561;28;20054;-72
2021/09/29 00:22:08;;;;;;;11.60;10.18;;;;;;;14.50;90.50;100459.25;10384045;28;20045;-72
2021/09/29 00:27:09;;;;;;;16.63;10.45;;;;;;;14.35;92.09;100456.28;10365975;28;20056;-73
2021/09/29 00:32:11;;;;;;;17.55;12.43;;;;;;;14.34;91.86;100454.56;10364561;28;20054;-75
2021/09/29 00:37:13;;;;;;;14.18;11.90;;;;;;;14.29;92.44;100451.22;10381709;28;20046;-72
2021/09/29 00:42:15;;;;;;;14.80;10.45;;;;;;;14.29;92.88;100445.06;10381550;28;20054;-72
2021/09/29 00:47:18;;;;;;;18.58;13.25;;;;;;;14.28;93.16;100440.72;10363583;28;20107;-73
2021/09/29 00:52:19;;;;;;;15.60;13.70;;;;;;;14.23;93.34;100432.97;10382043;28;20046;-73
2021/09/29 00:57:21;;;;;;;15.05;12.63;;;;;;;14.28;92.91;100432.78;10363745;28;20062;-72
2021/09/29 01:02:23;;;;;;;17.58;14.40;;;;;;;14.24;93.89;100428.53;10381935;28;20049;-72
2021/09/29 01:07:29;;;;;;;16.98;12.95;;;;;;;14.25;93.89;100419.66;10382146;28;20056;-72
2021/09/29 01:12:49;;;;;;;15.15;13.73;;;;;;;14.36;92.96;100418.31;10365424;28;20094;-72
2021/09/29 01:17:55;;;;;;;17.65;14.98;;;;;;;14.27;93.61;100416.06;10383540;28;20061;-73
2021/09/29 01:23:22;;;;;;;19.70;14.33;;;;;;;14.19;94.80;100404.06;10368551;28;20046;-73
2021/09/29 01:28:33;;;;;;;17.35;15.57;;;;;;;14.44;91.89;100396.84;10366672;28;20042;-73
2021/09/29 01:33:36;;;;;;;19.75;16.48;;;;;;;14.36;92.99;100394.50;10378044;22;20058;-68
2021/09/29 01:38:41;;;;;;;20.63;16.20;;;;;;;14.52;92.67;100381.56;10359828;28;20050;-69
2021/09/29 01:43:42;;;;;;;25.33;16.88;;;;;;;14.41;92.50;100381.09;10377842;28;20105;-68
2021/09/29 01:48:55;;;;;;;17.92;16.02;;;;;;;14.37;92.93;100379.50;10359415;28;20061;-68
2021/09/29 01:53:59;;;;;;;18.40;15.73;;;;;;;14.60;91.91;100362.69;10376949;28;20053;-68
2021/09/29 01:59:04;;;;;;;16.90;15.07;;;;;;;14.34;93.54;100364.66;10359587;28;20523;-67
2021/09/29 02:04:07;;;;;;;19.70;15.85;;;;;;;14.44;93.88;100358.97;10376490;28;20049;-68
2021/09/29 02:09:09;;;;;;;19.25;16.33;;;;;;;14.56;92.39;100356.66;10376354;28;20084;-68
2021/09/29 02:14:12;;;;;;;15.90;13.65;;;;;;;14.59;91.55;100348.59;10376118;28;20062;-68
2021/09/29 02:19:14;;;;;;;16.20;14.63;;;;;;;14.33;93.93;100351.47;10341486;28;20038;-68
2021/09/29 02:24:16;;;;;;;14.98;13.57;;;;;;;14.34;93.76;100356.72;10376026;28;20049;-68
2021/09/29 02:29:18;;;;;;;16.52;15.13;;;;;;;14.44;93.60;100343.09;10375470;28;20045;-68
2021/09/29 02:34:20;;;;;;;21.08;14.10;;;;;;;14.66;92.54;100341.28;10357896;28;20460;-68
2021/09/29 02:39:22;;;;;;;19.27;13.60;;;;;;;14.72;91.32;100341.00;10375178;28;20073;-67
2021/09/29 02:44:23;;;;;;;20.42;14.15;;;;;;;14.47;93.11;100327.94;10374775;28;20042;-67
2021/09/29 02:49:25;;;;;;;26.30;17.25;;;;;;;14.42;93.58;100329.06;10375836;28;20038;-68
2021/09/29 02:54:26;;;;;;;16.77;14.90;;;;;;;14.63;92.33;100323.72;10374609;28;20049;-68
2021/09/29 02:59:28;;;;;;;19.92;17.52;;;;;;;14.59;91.79;100316.00;10374325;28;20380;-68
2021/09/29 03:04:30;;;;;;;20.70;15.88;;;;;;;14.73;90.70;100321.53;10374002;28;20050;-68
2021/09/29 03:09:32;;;;;;;20.15;16.60;;;;;;;14.47;92.83;100319.13;10374052;28;20046;-68
2021/09/29 03:14:33;;;;;;;18.58;15.88;;;;;;;14.68;91.82;100320.03;10374813;28;20050;-68
2021/09/29 03:19:37;;;;;;;18.35;16.38;;;;;;;14.50;92.87;100321.69;10373841;28;20042;-68
2021/09/29 03:24:39;;;;;;;18.63;15.73;;;;;;;14.50;93.12;100317.25;10373683;28;20050;-68
2021/09/29 03:29:40;;;;;;;20.75;17.08;;;;;;;14.61;91.57;100303.56;10373383;28;20046;-68
2021/09/29 03:34:42;;;;;;;23.58;18.75;;;;;;;14.56;92.42;100301.09;10373221;28;20046;-68
2021/09/29 03:39:43;;;;;;;21.77;19.30;;;;;;;14.69;91.43;100303.22;10373824;28;20034;-69
2021/09/29 03:44:45;;;;;;;24.92;19.33;;;;;;;14.64;90.92;100299.00;10373078;28;20105;-68
2021/09/29 03:49:47;;;;;;;22.13;20.13;;;;;;;14.60;91.70;100284.16;10373764;28;20038;-68
2021/09/29 03:54:49;;;;;;;21.25;19.25;;;;;;;14.59;91.78;100289.53;10372658;28;20056;-68
2021/09/29 03:59:50;;;;;;;23.02;20.70;;;;;;;14.54;92.00;100278.31;10372741;28;20046;-68
2021/09/29 04:04:52;;;;;;;27.17;23.45;;;;;;;14.37;93.53;100284.31;10372518;28;20525;-70
2021/09/29 04:09:53;;;;;;;27.00;24.13;;;;;;;14.54;91.70;100279.16;10372553;28;20038;-70
2021/09/29 04:14:55;;;;;;;33.70;25.13;;;;;;;14.53;91.88;100266.88;10373144;28;20388;-70
2021/09/29 04:19:57;;;;;;;26.48;24.08;;;;;;;14.43;92.30;100264.66;10355325;28;20089;-70
2021/09/29 04:24:58;;;;;;;28.75;25.85;;;;;;;14.33;93.80;100258.91;10372610;28;20054;-70
2021/09/29 04:30:00;;;;;;;31.90;26.33;;;;;;;14.29;93.85;100249.38;10356216;28;20093;-70
2021/09/29 04:35:03;;;;;;;31.48;25.10;;;;;;;14.50;93.01;100253.78;10372701;28;20499;-71
2021/09/29 04:40:06;;;;;;;25.88;23.40;;;;;;;14.57;92.21;100241.16;10376553;28;20046;-69
2021/09/29 04:45:07;;;;;;;28.58;25.83;;;;;;;14.43;92.91;100236.41;10376318;28;20045;-70
2021/09/29 04:50:09;;;;;;;26.58;24.05;;;;;;;14.68;91.38;100233.56;10379365;28;20398;-69
2021/09/29 04:55:11;;;;;;;26.52;23.85;;;;;;;14.73;91.01;100234.22;10378835;28;20042;-70
2021/09/29 05:00:13;;;;;;;25.80;23.38;;;;;;;14.64;91.33;100232.00;10379748;28;20041;-70
2021/09/29 05:05:15;;;;;;;25.55;23.25;;;;;;;14.31;94.07;100221.97;10361176;28;20049;-70
2021/09/29 05:10:29;;;;;;;26.73;24.25;;;;;;;14.48;92.26;100223.00;10379093;28;20385;-70
2021/09/29 05:15:31;;;;;;;27.38;25.05;;;;;;;14.38;93.82;100222.53;10378685;28;20046;-70
2021/09/29 05:20:32;;;;;;;25.80;23.10;;;;;;;14.48;93.16;100212.44;10379975;28;20046;-70
2021/09/29 05:25:34;;;;;;;26.02;23.70;;;;;;;14.42;93.25;100208.25;10361858;28;20054;-70
2021/09/29 05:30:36;;;;;;;23.77;22.08;;;;;;;14.55;92.33;100209.44;10381336;28;20488;-70
2021/09/29 05:35:38;;;;;;;24.08;22.08;;;;;;;14.30;94.36;100206.19;10383696;28;20052;-70
2021/09/29 05:40:40;;;;;;;24.65;22.65;;;;;;;14.57;92.47;100214.69;10387716;28;20033;-71
2021/09/29 05:45:42;;;;;;;26.80;24.33;;;;;;;14.47;93.29;100214.19;10379891;28;20102;-71
2021/09/29 05:50:44;;;;;;;25.92;23.80;;;;;;;14.51;92.47;100207.03;10381723;28;20457;-72
2021/09/29 05:55:49;;;;;;;24.85;22.85;;;;;;;14.67;92.55;100208.03;10380543;28;20480;-71
2021/09/29 06:00:50;;;;;;;26.00;24.05;;;;;;;14.53;92.98;100202.53;10380356;28;20046;-71
2021/09/29 06:05:52;;;;;;;25.80;23.77;;;;;;;14.45;94.02;100196.69;10380386;28;20512;-70
2021/09/29 06:10:54;;;;;;;25.17;23.13;;;;;;;14.60;92.72;100194.22;10383641;28;20038;-70
2021/09/29 06:15:56;;;;;;;24.58;22.13;;;;;;;14.77;91.37;100190.81;10384498;28;20514;-70
2021/09/29 06:20:58;;;;;;;23.30;21.60;;;;;;;14.75;91.31;100184.75;10383794;28;20100;-70
2021/09/29 06:26:01;;;;;;;24.63;22.52;;;;;;;14.91;90.87;100186.66;10362847;28;20491;-70
2021/09/29 06:31:04;;;;;;;25.55;23.25;;;;;;;14.86;91.18;100177.13;10378813;28;20042;-70
2021/09/29 06:36:06;;;;;;;26.17;24.27;;;;;;;14.88;90.67;100169.16;10361633;28;20528;-70
2021/09/29 06:41:07;;;;;;;25.92;23.58;;;;;;;14.90;90.61;100172.56;10376680;28;20042;-70
2021/09/29 06:46:09;;;;;;;26.50;24.10;;;;;;;14.93;90.82;100167.13;10378891;28;20496;-69
2021/09/29 06:51:11;;;;;;;25.27;22.75;;;;;;;14.94;90.27;100163.56;10380697;28;20042;-70
2021/09/29 06:56:13;;;;;;;26.45;23.77;;;;;;;15.02;90.77;100165.84;10380340;28;20042;-70
2021/09/29 07:01:15;;;;;;;28.10;24.52;;;;;;;15.12;89.73;100162.66;10378535;28;20076;-70
2021/09/29 07:06:17;;;;;;;23.70;21.90;;;;;;;15.29;89.29;100158.34;10380672;28;20042;-70
2021/09/29 07:11:19;;;;;;;32.40;24.38;;;;;;;15.32;89.49;100153.75;10397512;28;20050;-70
2021/09/29 07:16:24;;;;;;;24.73;22.67;;;;;;;15.43;88.96;100153.22;10405566;28;20490;-71
2021/09/29 07:21:26;;;;;;;25.52;23.52;;;;;;;15.33;90.14;100149.31;10424971;28;20056;-71
2021/09/29 07:26:28;;;;;;;25.88;23.80;;;;;;;15.42;89.60;100159.47;10391182;28;20120;-69
2021/09/29 07:31:30;;;;;;;25.92;23.77;;;;;;;15.34;90.09;100157.19;10386526;28;20038;-70
2021/09/29 07:36:32;;;;;;;26.55;24.33;;;;;;;15.49;89.65;100160.00;10392577;23;20049;-71
2021/09/29 07:41:34;;;;;;;27.40;25.17;;;;;;;15.58;89.06;100164.81;10374196;28;20403;-72
2021/09/29 07:46:36;;;;;;;25.83;23.75;;;;;;;15.73;88.25;100166.75;10420126;28;20052;-71
2021/09/29 07:51:39;;;;;;;28.13;25.92;;;;;;;15.55;89.28;100187.06;10418402;28;20100;-71
2021/09/29 07:56:41;;;;;;;30.65;27.85;;;;;;;15.51;90.62;100195.22;10400957;28;20057;-71
2021/09/29 08:01:43;;;;;;;29.20;26.60;;;;;;;15.52;91.39;100197.78;10401345;28;20045;-71
2021/09/29 08:06:45;;;;;;;31.42;28.42;;;;;;;15.62;91.12;100196.38;10384543;28;20096;-71
2021/09/29 08:11:47;;;;;;;30.45;27.35;;;;;;;15.76;90.14;100190.47;10443786;28;20049;-72
2021/09/29 08:16:49;;;;;;;30.23;26.40;;;;;;;15.88;89.49;100191.59;10441040;28;20148;-71
2021/09/29 08:21:50;;;;;;;27.42;25.17;;;;;;;16.41;86.77;100180.00;10449200;28;20530;-71
2021/09/29 08:37:02;;;;;;;28.23;26.02;;;;;;;17.13;82.04;100187.56;10444657;28;20045;-72
2021/09/29 08:42:17;;;;;;;29.80;27.02;;;;;;;17.15;81.35;100180.34;10425412;28;20033;-71
2021/09/29 08:58:16;;;;;;;29.45;27.05;;;;;;;17.05;81.84;100184.47;10401816;28;20045;-72
2021/09/29 09:19:26;;;;;;;27.95;25.73;;;;;;;16.84;84.21;100193.63;10423953;28;20042;-72
2021/09/29 09:24:30;;;;;;;33.75;30.20;;;;;;;16.76;87.30;100195.84;10423266;28;20037;-72
2021/09/29 09:29:49;;;;;;;29.00;26.45;;;;;;;16.92;86.52;100190.56;10422824;28;20100;-71
2021/09/29 09:35:05;;;;;;;26.05;23.85;;;;;;;17.03;84.36;100194.31;10423157;28;20569;-71
2021/09/29 09:40:29;;;;;;;27.42;25.27;;;;;;;17.07;84.03;100193.19;10423452;28;20050;-71
2021/09/29 09:45:44;;;;;;;29.67;27.17;;;;;;;17.06;84.44;100196.78;10422532;28;20045;-71
2021/09/29 09:50:45;;;;;;;28.27;25.73;;;;;;;16.88;85.69;100192.50;10422394;28;20499;-71
2021/09/29 09:55:50;;;;;;;31.25;28.23;;;;;;;16.85;87.99;100182.91;10403931;28;20053;-71
2021/09/29 10:00:58;;;;;;;29.60;25.95;;;;;;;16.99;87.66;100191.91;10420981;28;20108;-72
2021/09/29 10:06:00;;;;;;;15.55;14.55;;;;;;;17.21;82.40;100187.09;10404349;28;20053;-72
2021/09/29 10:11:09;;;;;;;10.20;9.57;;;;;;;17.45;80.65;100184.84;10422655;28;20037;-72
2021/09/29 10:27:12;;;;;;;7.20;6.80;;;;;;;17.76;78.15;100188.41;10420282;28;20049;-72
2021/09/29 10:32:36;;;;;;;6.65;6.25;;;;;;;17.80;77.91;100172.19;10421828;28;20041;-71
2021/09/29 10:43:18;;;;;;;5.85;5.55;;;;;;;17.61;80.80;100188.31;10373213;28;20100;-71
2021/09/29 10:48:43;;;;;;;4.85;4.55;;;;;;;17.32;79.19;100192.66;10421709;28;20042;-71
2021/09/29 11:04:58;;;;;;;3.00;2.70;;;;;;;16.53;78.66;100182.00;10419866;28;20040;-71
2021/09/29 11:10:26;;;;;;;3.40;3.20;;;;;;;16.73;75.62;100186.22;10420805;28;20462;-71
2021/09/29 11:31:39;;;;;;;2.85;2.65;;;;;;;16.96;72.73;100179.66;10418298;28;20049;-73
2021/09/29 12:09:02;;;;;;;2.63;2.42;;;;;;;17.82;69.11;100161.44;10409921;28;20103;-71
2021/09/29 12:14:13;;;;;;;5.90;3.28;;;;;;;17.91;68.97;100158.25;10426300;28;20067;-71
2021/09/29 12:19:26;;;;;;;3.65;2.38;;;;;;;17.94;69.14;100157.22;10425792;28;20045;-71
2021/09/29 12:24:43;;;;;;;3.17;2.88;;;;;;;18.31;69.66;100150.47;10425812;28;20439;-71
2021/09/29 12:29:50;;;;;;;1.75;1.60;;;;;;;18.41;66.95;100160.44;10407928;28;20140;-71
2021/09/29 12:40:16;;;;;;;2.97;2.42;;;;;;;18.44;64.50;100162.06;10426299;28;20057;-73
2021/09/29 12:45:25;;;;;;;3.83;2.20;;;;;;;18.32;65.10;100157.50;10425352;28;20098;-71
2021/09/29 12:55:46;;;;;;;5.03;2.20;;;;;;;18.60;63.55;100162.84;10425584;28;20053;-71
2021/09/29 13:00:48;;;;;;;16.13;3.40;;;;;;;18.76;63.42;100165.41;10424586;28;20038;-71
2021/09/29 13:05:50;;;;;;;7.97;2.20;;;;;;;18.84;59.59;100162.25;10423951;28;20037;-71
2021/09/29 13:10:53;;;;;;;3.00;1.70;;;;;;;19.04;58.61;100161.84;10423702;28;20431;-71
2021/09/29 13:15:57;;;;;;;2.38;1.50;;;;;;;19.16;57.38;100161.03;10405738;28;20049;-72
2021/09/29 13:21:06;;;;;;;2.03;1.65;;;;;;;19.34;57.34;100163.44;10424016;28;20356;-71
2021/09/29 13:36:37;;;;;;;1.67;0.93;;;;;;;19.26;51.60;100163.13;10403510;23;20050;-69
2021/09/29 13:41:40;;;;;;;3.95;0.80;;;;;;;19.36;48.75;100166.88;10379678;28;20380;-69
2021/09/29 13:46:42;;;;;;;2.08;0.90;;;;;;;19.25;49.85;100164.03;10361795;28;20101;-69
2021/09/29 13:51:45;;;;;;;2.67;0.80;;;;;;;19.14;49.36;100159.44;10380291;28;20101;-69
2021/09/29 14:33:59;;;;;;;2.03;0.77;;;;;;;18.80;47.70;100158.94;10214711;29;20055;-69
2021/09/29 14:39:00;;;;;;;2.10;0.82;;;;;;;18.90;47.54;100160.06;10212494;29;20100;-70
2021/09/29 14:44:02;;;;;;;1.40;0.60;;;;;;;19.02;45.06;100162.88;10196652;29;20240;-69
2021/09/29 14:49:04;;;;;;;1.83;0.80;;;;;;;18.62;48.33;100157.41;10212387;29;20071;-69
2021/09/29 14:54:06;;;;;;;4.40;0.70;;;;;;;18.28;48.88;100161.31;10212878;29;20047;-69
2021/09/29 14:59:08;;;;;;;1.88;0.93;;;;;;;18.49;48.14;100169.78;10212885;29;20130;-68
2021/09/29 15:04:10;;;;;;;2.10;0.80;;;;;;;18.60;48.40;100172.63;10322186;28;20075;-69
2021/09/29 15:09:14;;;;;;;1.70;0.70;;;;;;;18.43;49.11;100176.34;10378591;28;20059;-69
2021/09/29 15:14:24;;;;;;;2.22;0.70;;;;;;;18.16;48.92;100178.91;10417176;28;20080;-69
2021/09/29 15:24:51;;;;;;;1.30;0.60;;;;;;;18.19;47.98;100177.84;10418527;28;20037;-68
2021/09/29 16:02:08;;;;;;;2.03;1.00;;;;;;;16.86;54.24;100170.47;10294633;28;20468;-68
2021/09/29 16:17:44;;;;;;;1.05;0.85;;;;;;;16.40;57.61;100187.09;10290769;28;20517;-69
2021/09/29 16:38:37;;;;;;;1.88;1.35;;;;;;;15.98;60.94;100214.09;10416662;28;20129;-68
2021/09/29 16:43:38;;;;;;;2.40;1.60;;;;;;;15.78;63.08;100212.44;10423216;28;20056;-68
2021/09/29 16:48:41;;;;;;;1.85;0.98;;;;;;;15.59;63.42;100225.72;10423217;28;20052;-69
2021/09/29 16:53:47;;;;;;;2.33;1.38;;;;;;;15.41;64.26;100229.28;10424643;28;20515;-68
2021/09/29 16:59:00;;;;;;;5.85;1.98;;;;;;;15.30;65.09;100236.84;10406298;28;20057;-69
2021/09/29 17:04:02;;;;;;;2.40;1.40;;;;;;;15.06;66.51;100242.41;10407581;28;20113;-70
2021/09/29 17:09:03;;;;;;;3.35;1.45;;;;;;;14.88;67.89;100241.47;10423925;28;20403;-68
2021/09/29 17:14:05;;;;;;;4.10;2.03;;;;;;;14.74;67.57;100259.78;10422973;28;20052;-69
2021/09/29 17:19:06;;;;;;;3.15;2.58;;;;;;;14.78;66.96;100263.97;10422590;28;20049;-69
2021/09/29 17:24:30;;;;;;;2.70;1.95;;;;;;;14.74;68.24;100265.06;10422781;28;20457;-68
2021/09/29 17:29:32;;;;;;;2.88;2.00;;;;;;;14.60;68.35;100276.25;10423022;28;20075;-66
2021/09/29 17:55:29;;;;;;;3.53;1.48;;;;;;;14.85;65.35;100315.69;10424216;28;20048;-68
2021/09/29 18:00:34;;;;;;;2.70;1.20;;;;;;;15.11;61.84;100316.31;10425008;28;20053;-70
2021/09/29 18:10:38;;;;;;;3.65;1.10;;;;;;;15.61;60.02;100351.03;10424643;28;20061;-68
2021/09/29 18:15:41;;;;;;;3.15;1.00;;;;;;;15.63;59.37;100370.38;10425179;28;20038;-68
2021/09/29 18:20:43;;;;;;;2.10;0.50;;;;;;;15.88;58.52;100385.13;10408723;28;20052;-67
2021/09/29 18:25:45;;;;;;;0.90;0.47;;;;;;;15.81;60.15;100391.66;10424568;28;20046;-68
2021/09/29 18:30:47;;;;;;;1.02;1.00;;;;;;;15.73;60.43;100399.13;10424595;28;20053;-68
2021/09/29 18:35:53;;;;;;;1.55;0.50;;;;;;;15.85;60.39;100407.34;10420739;28;20435;-68
2021/09/29 18:41:00;;;;;;;2.10;0.50;;;;;;;15.71;61.51;100419.53;10419941;28;20497;-69
2021/09/29 18:46:03;;;;;;;2.25;0.30;;;;;;;15.58;62.99;100429.78;10419848;28;20045;-68
2021/09/29 18:51:06;;;;;;;1.00;0.38;;;;;;;15.58;63.34;100438.63;10418533;28;20077;-68
2021/09/29 18:56:14;;;;;;;1.45;0.38;;;;;;;15.59;63.35;100442.13;10418944;28;20137;-68
2021/09/29 19:11:57;;;;;;;0.68;0.30;;;;;;;15.31;61.42;100464.56;10419783;28;20103;-70
2021/09/29 19:16:59;;;;;;;0.75;0.30;;;;;;;15.26;62.42;100471.00;10418849;28;20116;-68
2021/09/29 19:22:01;;;;;;;1.83;0.40;;;;;;;15.10;62.99;100479.63;10421095;28;20092;-67
2021/09/29 19:27:04;;;;;;;1.27;0.38;;;;;;;14.94;63.92;100469.75;10420424;28;20050;-67
2021/09/29 19:32:06;;;;;;;0.80;0.30;;;;;;;14.71;65.24;100482.16;10419244;28;20041;-67
2021/09/29 19:37:09;;;;;;;1.58;0.43;;;;;;;14.83;64.48;100497.53;10394884;23;20042;-80
2021/09/29 19:42:11;;;;;;;0.35;0.30;;;;;;;14.44;66.44;100491.22;10360288;28;20096;-80
2021/09/29 19:47:39;;;;;;;1.73;0.50;;;;;;;14.26;67.61;100498.09;10360354;28;20069;-81
2021/09/29 20:08:25;;;;;;;1.75;0.40;;;;;;;14.37;67.75;100519.66;10395088;28;20121;-79
2021/09/29 20:13:27;;;;;;;0.95;0.50;;;;;;;14.43;67.68;100527.34;10392567;28;20038;-78
2021/09/29 20:18:30;;;;;;;0.98;0.60;;;;;;;14.28;66.98;100522.69;10383238;28;20053;-80
2021/09/29 20:23:32;;;;;;;1.20;0.50;;;;;;;14.20;64.10;100530.91;10400991;28;20072;-79
2021/09/29 20:28:33;;;;;;;0.80;0.43;;;;;;;14.13;62.30;100521.50;10401047;28;20049;-80
2021/09/29 20:44:03;;;;;;;0.50;0.40;;;;;;;14.02;62.84;100528.97;10400257;28;20042;-80
2021/09/29 20:49:07;;;;;;;0.50;0.30;;;;;;;13.91;63.26;100534.69;10399711;28;20096;-80
2021/09/29 20:54:09;;;;;;;1.23;0.32;;;;;;;13.84;63.35;100528.75;10381447;28;20046;-80
2021/09/29 20:59:11;;;;;;;1.52;0.45;;;;;;;13.98;63.30;100537.94;10379788;28;20077;-80
2021/09/29 21:04:12;;;;;;;1.45;0.35;;;;;;;13.78;63.77;100550.13;10395704;28;20049;-79
2021/09/29 21:09:17;;;;;;;0.80;0.40;;;;;;;13.78;63.12;100554.53;10382997;28;20050;-79
2021/09/29 21:14:24;;;;;;;1.35;0.30;;;;;;;13.79;60.70;100580.03;10397836;28;20046;-81
2021/09/29 21:19:26;;;;;;;0.25;0.22;;;;;;;13.85;60.40;100599.16;10399644;28;20073;-80
2021/09/29 21:24:27;;;;;;;2.88;0.22;;;;;;;13.66;60.50;100599.91;10402247;28;20065;-79
2021/09/29 21:29:29;;;;;;;0.55;0.20;;;;;;;13.73;59.85;100609.34;10426736;28;20053;-80
2021/09/29 21:34:31;;;;;;;0.35;0.20;;;;;;;13.53;61.40;100615.31;10422939;28;20052;-81
2021/09/29 21:39:55;;;;;;;0.85;0.20;;;;;;;13.49;61.57;100611.91;10439448;28;20503;-78
2021/09/29 21:58:59;;;;;;;0.52;0.25;;;;;;;13.38;61.69;100640.47;10439861;28;20570;-80
2021/09/29 22:12:40;;;;;;;1.65;0.60;;;;;;;13.24;62.86;100656.78;10421282;28;20088;-81
2021/09/29 22:33:03;;;;;;;0.50;0.28;;;;;;;12.60;58.99;100703.59;10437899;28;20101;-81
2021/09/29 22:53:25;;;;;;;0.55;0.20;;;;;;;12.51;58.65;100709.13;10438140;28;20097;-79
2021/09/29 23:00:20;;;;;;;0.52;0.47;;;;;;;12.08;59.11;100716.47;10437996;28;20049;-79
2021/09/29 23:05:01;;;;;;;1.02;0.30;;;;;;;11.97;58.93;100721.16;10437993;28;20049;-80
2021/09/29 23:10:10;;;;;;;0.88;0.30;;;;;;;11.83;59.62;100728.56;10403943;28;20064;-79
2021/09/29 23:36:29;;;;;;;1.38;0.50;;;;;;;11.49;59.59;100750.44;10441354;28;20095;-81
2021/09/29 23:41:30;;;;;;;0.40;0.20;;;;;;;11.54;59.27;100750.31;10441923;28;20071;-81
2021/09/29 23:46:36;;;;;;;1.30;0.30;;;;;;;11.39;59.41;100756.84;10441411;28;20111;-80
2021/09/29 23:51:38;;;;;;;1.30;0.40;;;;;;;11.37;59.36;100767.38;10442027;28;20077;-80
2021/09/29 23:56:39;;;;;;;1.30;0.65;;;;;;;11.26;60.45;100765.91;10425324;28;20042;-79
